Time;durP1;ratioP1;P1;durP2;ratioP2;P2;SDS_P1;SDS_P2;PMS_P1;PMS_P2;Temp;Humidity;BMP_temperature;BMP_pressure;BME280_temperature;BME280_humidity;BME280_pressure;Samples;Min_cycle;Max_cycle;Signal;HPM_P1;HPM_P2
2021/12/25 00:01:09;;;;;;;0.20;0.20;;;;;;;9.00;68.40;100665.00;5047583;28;20025;-84
2021/12/25 00:03:38;;;;;;;0.57;0.57;;;;;;;8.87;68.06;100671.38;5035550;28;20489;-83
2021/12/25 00:06:05;;;;;;;1.85;0.80;;;;;;;8.85;68.62;100674.03;5039590;28;20091;-85
2021/12/25 00:08:32;;;;;;;0.20;0.20;;;;;;;8.76;67.77;100673.31;5036860;28;20038;-84
2021/12/25 00:11:01;;;;;;;0.10;0.10;;;;;;;8.74;68.31;100668.06;5044970;28;20495;-85
2021/12/25 00:13:27;;;;;;;0.10;0.10;;;;;;;8.73;68.64;100669.84;5043201;28;20041;-85
2021/12/25 00:15:54;;;;;;;0.10;0.10;;;;;;;8.64;68.42;100675.22;5045734;28;20048;-85
2021/12/25 00:18:21;;;;;;;0.10;0.10;;;;;;;8.56;68.43;100677.09;5046306;28;20048;-84
2021/12/25 00:20:48;;;;;;;1.48;0.70;;;;;;;8.54;68.20;100681.56;5044996;28;20405;-84
2021/12/25 00:23:14;;;;;;;0.65;0.65;;;;;;;8.53;68.92;100666.59;5037139;28;20036;-85
2021/12/25 00:25:46;;;;;;;0.10;0.10;;;;;;;8.47;68.28;100667.53;5035931;28;20033;-83
2021/12/25 00:31:06;;;;;;;0.25;0.25;;;;;;;8.41;68.15;100679.06;5046422;28;20033;-84
2021/12/25 00:33:50;;;;;;;0.17;0.17;;;;;;;8.40;68.82;100687.84;5038547;28;20124;-84
2021/12/25 00:36:20;;;;;;;0.20;0.20;;;;;;;8.33;68.84;100682.69;5037269;28;20080;-84
2021/12/25 00:38:48;;;;;;;0.10;0.10;;;;;;;8.34;68.54;100685.31;5044514;28;20477;-83
2021/12/25 00:41:17;;;;;;;0.20;0.20;;;;;;;8.30;68.75;100674.78;5049036;28;20033;-83
2021/12/25 00:43:44;;;;;;;0.10;0.10;;;;;;;8.26;68.54;100690.69;5047587;28;20025;-84
2021/12/25 00:46:11;;;;;;;1.02;0.77;;;;;;;8.20;68.62;100681.94;5048771;28;20029;-84
2021/12/25 00:48:37;;;;;;;0.45;0.45;;;;;;;8.20;68.35;100688.13;5047027;28;20472;-84
2021/12/25 00:51:05;;;;;;;0.10;0.10;;;;;;;8.17;68.46;100689.94;5046620;28;20104;-84
2021/12/25 00:53:31;;;;;;;0.17;0.17;;;;;;;8.17;68.44;100695.22;5047175;28;20575;-84
2021/12/25 00:55:58;;;;;;;0.20;0.20;;;;;;;8.15;69.06;100691.69;5047310;28;20037;-84
2021/12/25 00:58:24;;;;;;;0.85;0.85;;;;;;;8.16;69.28;100682.91;5045833;28;20025;-84
2021/12/25 01:00:51;;;;;;;0.25;0.25;;;;;;;8.07;68.91;100690.06;5044779;28;20025;-83
2021/12/25 01:03:17;;;;;;;0.10;0.10;;;;;;;8.12;68.92;100691.75;5028560;28;20053;-83
2021/12/25 01:05:43;;;;;;;0.10;0.10;;;;;;;8.07;69.18;100684.78;5032183;28;20400;-84
2021/12/25 01:08:10;;;;;;;0.20;0.20;;;;;;;8.09;68.61;100695.31;5035815;28;20025;-84
2021/12/25 01:10:37;;;;;;;0.15;0.15;;;;;;;8.06;69.01;100693.59;5034112;28;20030;-83
2021/12/25 01:13:10;;;;;;;0.10;0.10;;;;;;;8.04;68.80;100695.34;5034174;28;20084;-84
2021/12/25 01:15:55;;;;;;;0.10;0.10;;;;;;;8.09;68.97;100697.94;5030642;28;20053;-84
2021/12/25 01:18:56;;;;;;;0.10;0.10;;;;;;;8.04;68.45;100690.06;5036219;28;20477;-84
2021/12/25 01:21:57;;;;;;;0.75;0.75;;;;;;;8.06;68.41;100685.66;5048844;22;20077;-82
2021/12/25 01:26:59;;;;;;;0.45;0.45;;;;;;;7.99;68.83;100676.06;5055575;28;20060;-86
2021/12/25 01:30:06;;;;;;;0.52;0.52;;;;;;;7.91;68.21;100689.34;5056980;28;20037;-82
2021/12/25 01:48:48;;;;;;;0.10;0.10;;;;;;;7.76;68.83;100678.97;5048626;28;20033;-86
2021/12/25 01:51:14;;;;;;;0.22;0.22;;;;;;;7.84;68.68;100681.50;5043943;28;20030;-84
2021/12/25 01:53:40;;;;;;;2.28;2.17;;;;;;;7.73;68.43;100684.28;5049625;28;20484;-84
2021/12/25 01:56:07;;;;;;;0.10;0.10;;;;;;;7.73;68.25;100684.28;5048033;28;20060;-85
2021/12/25 01:58:35;;;;;;;2.17;1.05;;;;;;;7.70;67.96;100684.31;5039944;28;20076;-83
2021/12/25 02:01:03;;;;;;;0.10;0.10;;;;;;;7.71;68.63;100692.22;5046117;28;20120;-87
2021/12/25 02:03:31;;;;;;;0.08;0.08;;;;;;;7.66;68.17;100679.97;5048297;28;20036;-83
2021/12/25 02:05:59;;;;;;;0.10;0.10;;;;;;;7.69;68.33;100694.00;5048278;28;20056;-82
2021/12/25 02:08:26;;;;;;;2.67;1.55;;;;;;;7.61;68.29;100696.72;5045721;28;20438;-85
2021/12/25 02:10:52;;;;;;;0.25;0.25;;;;;;;7.54;68.19;100694.13;5049025;28;20079;-85
2021/12/25 02:13:20;;;;;;;0.20;0.20;;;;;;;7.56;67.97;100687.09;5046790;28;20059;-86
2021/12/25 02:15:49;;;;;;;0.20;0.20;;;;;;;7.53;68.18;100693.25;5048884;28;20021;-87
2021/12/25 02:18:56;;;;;;;0.20;0.20;;;;;;;7.57;68.54;100692.34;5047976;28;20448;-84
2021/12/25 02:21:19;;;;;;;0.10;0.10;;;;;;;7.57;68.44;100681.78;5044287;28;20555;-86
2021/12/25 02:23:45;;;;;;;0.10;0.10;;;;;;;7.48;67.58;100692.44;5041368;28;20116;-86
2021/12/25 02:26:12;;;;;;;0.20;0.20;;;;;;;7.42;67.93;100696.00;5046715;28;20037;-86
2021/12/25 02:28:38;;;;;;;0.10;0.10;;;;;;;7.29;67.48;100694.38;5045179;28;20029;-84
2021/12/25 02:31:11;;;;;;;0.17;0.17;;;;;;;7.31;68.01;100694.38;5041558;28;20484;-87
2021/12/25 02:33:39;;;;;;;0.10;0.10;;;;;;;7.24;68.14;100697.06;5046471;28;20060;-86
2021/12/25 02:36:10;;;;;;;0.55;0.55;;;;;;;7.19;67.97;100693.59;5048952;28;20037;-86
2021/12/25 02:38:37;;;;;;;2.03;1.38;;;;;;;7.16;68.02;100698.00;5047663;28;20033;-85
2021/12/25 02:41:04;;;;;;;0.10;0.10;;;;;;;7.13;67.66;100694.50;5048235;28;20037;-86
2021/12/25 02:43:31;;;;;;;0.45;0.45;;;;;;;7.09;67.98;100692.78;5049296;28;20040;-82
2021/12/25 02:46:03;;;;;;;0.10;0.10;;;;;;;7.00;68.06;100707.78;5042510;28;20056;-85
2021/12/25 02:48:31;;;;;;;;;;;;;;;7.09;67.37;100707.69;5045933;28;20346;-83
2021/12/25 02:50:57;;;;;;;0.20;0.20;;;;;;;6.95;67.90;100707.81;5047977;28;19919;-83
2021/12/25 02:53:24;;;;;;;0.20;0.20;;;;;;;6.88;67.83;100704.34;5038854;28;20131;-80
2021/12/25 02:55:50;;;;;;;0.20;0.20;;;;;;;6.89;67.88;100707.84;5031698;28;20036;-86
2021/12/25 02:58:19;;;;;;;0.20;0.20;;;;;;;6.90;68.49;100704.34;5029462;28;20030;-83
2021/12/25 03:00:53;;;;;;;0.10;0.10;;;;;;;6.78;67.57;100714.06;5027905;28;20455;-86
2021/12/25 03:03:20;;;;;;;0.13;0.13;;;;;;;6.71;67.98;100707.09;5025517;28;20113;-85
2021/12/25 03:05:47;;;;;;;0.30;0.30;;;;;;;6.69;67.90;100708.88;5034011;28;20036;-86
2021/12/25 03:08:15;;;;;;;0.10;0.10;;;;;;;6.63;67.74;100712.41;5035264;28;20065;-84
2021/12/25 03:10:42;;;;;;;0.30;0.30;;;;;;;6.65;68.11;100715.03;5030107;28;20117;-87
2021/12/25 03:15:54;;;;;;;0.50;0.50;;;;;;;6.54;67.82;100722.13;5073629;28;20406;-84
2021/12/25 03:18:23;;;;;;;0.10;0.10;;;;;;;6.61;67.92;100731.72;5056249;28;20044;-82
2021/12/25 03:20:52;;;;;;;0.82;0.82;;;;;;;6.56;67.91;100731.75;5052964;28;20039;-82
2021/12/25 03:23:22;;;;;;;0.52;0.52;;;;;;;6.57;67.98;100733.50;5053252;28;20021;-84
2021/12/25 03:25:50;;;;;;;0.10;0.10;;;;;;;6.64;67.86;100736.97;5060217;28;20087;-81
2021/12/25 03:28:21;;;;;;;0.10;0.10;;;;;;;6.58;68.16;100734.38;5058672;28;20036;-84
2021/12/25 03:30:47;;;;;;;0.13;0.13;;;;;;;6.57;67.91;100740.53;5066120;28;20037;-83
2021/12/25 03:33:20;;;;;;;0.17;0.17;;;;;;;6.60;67.92;100740.50;5047815;28;20090;-82
2021/12/25 03:35:47;;;;;;;0.20;0.20;;;;;;;6.63;68.06;100744.00;5051887;28;20060;-84
2021/12/25 03:38:16;;;;;;;0.10;0.10;;;;;;;6.61;67.99;100750.16;5054928;28;20100;-82
2021/12/25 03:40:42;;;;;;;2.53;1.02;;;;;;;6.57;67.76;100756.34;5053947;28;20407;-84
2021/12/25 03:43:17;;;;;;;0.10;0.10;;;;;;;6.64;67.77;100760.66;5054586;28;20081;-84
2021/12/25 03:45:49;;;;;;;0.95;0.77;;;;;;;6.63;67.41;100758.94;5056126;28;20048;-83
2021/12/25 03:59:31;;;;;;;0.30;0.30;;;;;;;6.50;67.41;100757.25;5073849;28;20040;-82
2021/12/25 04:02:02;;;;;;;2.15;2.05;;;;;;;6.44;67.35;100769.53;5060248;28;20063;-82
2021/12/25 04:04:35;;;;;;;0.13;0.13;;;;;;;6.47;67.54;100772.16;5064197;28;20040;-83
2021/12/25 04:07:13;;;;;;;0.10;0.10;;;;;;;6.44;67.45;100777.44;5043783;28;20033;-80
2021/12/25 04:09:40;;;;;;;0.52;0.52;;;;;;;6.47;67.24;100773.91;5049189;28;20494;-83
2021/12/25 04:12:09;;;;;;;0.10;0.10;;;;;;;6.54;67.64;100782.66;5040152;28;20025;-80
2021/12/25 04:14:37;;;;;;;0.20;0.20;;;;;;;6.52;67.35;100784.41;5047282;28;20035;-80
2021/12/25 04:17:03;;;;;;;0.35;0.35;;;;;;;6.51;67.44;100782.69;5045187;28;20030;-85
2021/12/25 04:19:30;;;;;;;0.10;0.10;;;;;;;6.51;67.20;100777.41;5051931;28;20021;-85
2021/12/25 04:22:01;;;;;;;2.15;1.92;;;;;;;6.42;67.41;100789.72;5053603;28;20530;-79
2021/12/25 04:24:31;;;;;;;0.10;0.10;;;;;;;6.40;66.60;100786.22;5039815;28;20086;-83
2021/12/25 04:26:58;;;;;;;0.40;0.40;;;;;;;6.43;67.27;100775.69;5055222;28;20022;-84
2021/12/25 05:03:03;;;;;;;0.20;0.20;;;;;;;6.29;66.45;100824.84;5022607;28;20485;-85
2021/12/25 05:05:30;;;;;;;0.20;0.20;;;;;;;6.31;66.53;100828.34;5030173;28;20238;-81
2021/12/25 05:07:56;;;;;;;0.93;0.85;;;;;;;6.35;66.70;100818.69;5033529;28;20055;-85
2021/12/25 05:10:23;;;;;;;0.10;0.10;;;;;;;6.27;67.07;100827.50;5030974;28;20473;-85
2021/12/25 05:12:49;;;;;;;0.32;0.32;;;;;;;6.21;66.67;100832.75;5029820;28;20033;-80
2021/12/25 05:15:15;;;;;;;0.70;0.70;;;;;;;6.15;66.55;100827.50;5030507;28;20033;-82
2021/12/25 05:17:41;;;;;;;0.10;0.10;;;;;;;6.15;66.49;100833.63;5030322;28;20390;-86
2021/12/25 05:20:07;;;;;;;0.30;0.30;;;;;;;6.09;67.03;100836.31;5033320;28;20575;-85
2021/12/25 05:22:34;;;;;;;0.10;0.10;;;;;;;6.06;66.81;100833.66;5040480;28;20044;-82
2021/12/25 05:25:00;;;;;;;0.20;0.20;;;;;;;6.11;67.04;100829.28;5028414;28;20480;-85
2021/12/25 05:27:26;;;;;;;0.30;0.30;;;;;;;6.12;66.69;100838.91;5029232;28;20116;-84
2021/12/25 05:29:52;;;;;;;0.20;0.20;;;;;;;6.11;66.69;100837.16;5035969;28;20033;-81
2021/12/25 05:32:21;;;;;;;0.10;0.10;;;;;;;6.04;66.42;100834.56;5032683;28;20030;-83
2021/12/25 05:34:49;;;;;;;1.98;0.93;;;;;;;6.04;66.39;100838.03;5031912;28;20033;-85
2021/12/25 05:37:15;;;;;;;0.28;0.28;;;;;;;5.98;66.43;100852.09;5029693;28;20064;-81
2021/12/25 05:39:49;;;;;;;0.25;0.25;;;;;;;5.88;66.57;100844.16;5029373;28;20021;-80
2021/12/25 05:42:16;;;;;;;0.95;0.95;;;;;;;5.86;66.15;100840.66;5029015;28;20536;-84
2021/12/25 05:44:43;;;;;;;0.20;0.20;;;;;;;5.71;66.22;100855.56;5031152;28;20033;-82
2021/12/25 05:47:09;;;;;;;0.10;0.10;;;;;;;5.81;66.28;100849.44;5031436;28;20068;-82
2021/12/25 05:49:36;;;;;;;0.20;0.20;;;;;;;5.74;66.08;100852.94;5030463;28;20022;-82
2021/12/25 05:52:02;;;;;;;0.20;0.20;;;;;;;5.73;66.11;100855.56;5027816;28;20192;-83
2021/12/25 05:54:28;;;;;;;0.20;0.20;;;;;;;5.65;66.47;100852.94;5036940;28;20049;-81
2021/12/25 05:56:54;;;;;;;0.25;0.25;;;;;;;5.74;66.27;100854.69;5023341;28;20038;-85
2021/12/25 05:59:21;;;;;;;0.10;0.10;;;;;;;5.76;66.19;100864.34;5015355;28;20042;-82
2021/12/25 06:01:47;;;;;;;0.55;0.55;;;;;;;5.76;66.31;100864.34;5021032;28;20029;-84
2021/12/25 06:04:13;;;;;;;0.17;0.17;;;;;;;5.74;66.64;100873.97;5017573;28;20370;-82
2021/12/25 06:06:39;;;;;;;0.20;0.20;;;;;;;5.66;65.66;100873.97;5012843;28;20528;-80
2021/12/25 06:09:07;;;;;;;0.93;0.43;;;;;;;5.71;65.96;100879.25;5014479;28;20041;-81
2021/12/25 06:11:36;;;;;;;0.10;0.10;;;;;;;5.71;66.12;100879.25;5010058;28;20057;-85
2021/12/25 06:14:10;;;;;;;0.20;0.20;;;;;;;5.71;66.01;100881.88;5016217;28;20504;-82
2021/12/25 06:16:37;;;;;;;1.95;0.90;;;;;;;5.79;66.17;100887.97;5014102;28;20029;-84
2021/12/25 06:19:04;;;;;;;0.15;0.15;;;;;;;5.74;66.25;100883.63;5013830;28;20045;-82
2021/12/25 06:21:31;;;;;;;0.10;0.10;;;;;;;5.67;65.91;100888.00;5009100;28;20036;-83
2021/12/25 06:24:00;;;;;;;0.10;0.10;;;;;;;5.71;65.96;100889.75;5018110;28;20044;-84
2021/12/25 06:26:27;;;;;;;0.20;0.20;;;;;;;5.66;65.70;100894.13;5014016;28;20030;-86
2021/12/25 06:28:53;;;;;;;0.10;0.10;;;;;;;5.65;66.09;100900.25;5011910;28;20026;-82
2021/12/25 06:31:19;;;;;;;0.20;0.20;;;;;;;5.63;65.63;100896.75;5025367;28;20103;-85
2021/12/25 06:33:45;;;;;;;0.30;0.30;;;;;;;5.60;66.15;100905.50;5027715;28;20104;-85
2021/12/25 06:36:11;;;;;;;0.28;0.28;;;;;;;5.58;65.76;100902.03;5015867;28;20041;-85
2021/12/25 06:38:40;;;;;;;0.20;0.20;;;;;;;5.46;65.73;100900.22;5015362;28;20033;-85
2021/12/25 06:41:07;;;;;;;0.10;0.10;;;;;;;5.43;65.49;100905.50;5015176;28;20034;-81
2021/12/25 06:43:33;;;;;;;0.10;0.10;;;;;;;5.43;65.08;100908.13;5015115;28;20048;-86
2021/12/25 06:46:00;;;;;;;0.45;0.45;;;;;;;5.37;64.91;100900.22;5015221;28;20046;-81
2021/12/25 06:48:26;;;;;;;0.17;0.17;;;;;;;5.29;64.98;100907.19;5015612;28;20392;-86
2021/12/25 06:50:53;;;;;;;0.10;0.10;;;;;;;5.15;65.04;100905.41;5012453;28;20022;-86
2021/12/25 06:53:19;;;;;;;0.10;0.10;;;;;;;5.13;65.13;100906.28;5015917;28;20046;-87
2021/12/25 06:55:47;;;;;;;0.10;0.10;;;;;;;5.04;65.18;100907.13;5019172;28;20034;-85
2021/12/25 06:58:13;;;;;;;0.40;0.40;;;;;;;5.00;64.94;100907.97;5015329;28;20054;-81
2021/12/25 07:00:40;;;;;;;0.10;0.10;;;;;;;4.90;64.77;100917.56;5013010;28;20029;-86
2021/12/25 07:03:06;;;;;;;0.17;0.17;;;;;;;4.90;64.76;100914.03;5014899;28;20038;-82
2021/12/25 07:05:32;;;;;;;0.70;0.70;;;;;;;4.83;65.10;100918.41;5014324;28;20076;-83
2021/12/25 07:07:58;;;;;;;0.10;0.10;;;;;;;4.74;64.85;100918.38;5012762;28;20813;-85
2021/12/25 07:10:24;;;;;;;0.10;0.10;;;;;;;4.72;65.53;100934.09;5012805;28;20030;-82
2021/12/25 07:12:53;;;;;;;0.25;0.25;;;;;;;4.62;64.43;100934.91;5013413;28;20088;-83
2021/12/25 07:15:20;;;;;;;0.20;0.20;;;;;;;4.47;64.33;100939.19;5013914;28;20044;-82
2021/12/25 07:17:46;;;;;;;0.10;0.10;;;;;;;4.33;64.33;100948.72;5013050;28;20042;-87
2021/12/25 07:20:13;;;;;;;0.28;0.28;;;;;;;4.20;64.43;100947.75;5013893;28;20045;-85
2021/12/25 07:22:40;;;;;;;0.20;0.20;;;;;;;4.00;64.30;100944.94;5012406;28;20046;-84
2021/12/25 07:25:08;;;;;;;0.10;0.10;;;;;;;3.79;64.40;100951.75;5012565;28;20117;-81
2021/12/25 07:27:34;;;;;;;0.20;0.20;;;;;;;3.82;64.40;100954.41;5011868;28;20040;-84
2021/12/25 07:30:02;;;;;;;0.20;0.20;;;;;;;3.72;64.61;100955.19;5012109;28;20485;-82
2021/12/25 07:32:29;;;;;;;0.20;0.20;;;;;;;3.75;64.92;100962.19;5013740;28;20057;-82
2021/12/25 07:34:57;;;;;;;0.20;0.20;;;;;;;3.61;64.91;100956.81;5014949;28;20030;-86
2021/12/25 07:37:27;;;;;;;0.20;0.20;;;;;;;3.60;64.90;100960.28;4998286;28;20030;-87
2021/12/25 07:39:53;;;;;;;0.20;0.20;;;;;;;3.53;65.18;100962.84;5014572;28;20045;-79
2021/12/25 07:42:21;;;;;;;0.13;0.13;;;;;;;3.42;65.22;100969.72;5011611;28;20215;-83
2021/12/25 07:44:53;;;;;;;0.20;0.20;;;;;;;3.38;64.79;100968.78;5022052;28;20108;-84
2021/12/25 07:47:21;;;;;;;0.20;0.20;;;;;;;3.21;64.72;100963.34;5016876;28;20037;-84
2021/12/25 07:49:48;;;;;;;0.10;0.10;;;;;;;3.23;65.37;100971.25;5016338;28;20018;-82
2021/12/25 07:52:15;;;;;;;0.22;0.22;;;;;;;3.21;64.92;100972.94;5014926;28;20045;-82
2021/12/25 07:54:44;;;;;;;0.15;0.15;;;;;;;3.27;65.26;100966.94;5021143;28;20029;-84
2021/12/25 07:57:10;;;;;;;0.15;0.15;;;;;;;3.21;64.98;100979.06;5024364;28;20097;-84
2021/12/25 07:59:36;;;;;;;0.20;0.20;;;;;;;3.29;65.40;100996.59;5014409;28;20044;-84
2021/12/25 08:02:02;;;;;;;0.10;0.10;;;;;;;3.19;64.97;100993.00;5012930;28;20128;-83
2021/12/25 08:04:29;;;;;;;0.10;0.10;;;;;;;3.23;65.28;101002.66;5014229;28;20037;-84
2021/12/25 08:06:55;;;;;;;0.10;0.10;;;;;;;3.14;64.58;101007.75;5010614;28;20038;-85
2021/12/25 08:09:28;;;;;;;0.20;0.20;;;;;;;3.09;64.63;101005.13;5013224;28;20030;-85
2021/12/25 08:11:56;;;;;;;0.20;0.20;;;;;;;3.01;64.71;101001.50;5011724;28;20046;-78
2021/12/25 08:14:25;;;;;;;0.30;0.30;;;;;;;3.02;64.85;100998.03;5020224;28;20037;-85
2021/12/25 08:16:52;;;;;;;0.10;0.10;;;;;;;3.03;64.87;101005.03;5016175;28;20460;-84
2021/12/25 08:19:19;;;;;;;0.20;0.20;;;;;;;2.94;64.89;101010.13;5010623;28;20030;-84
2021/12/25 08:21:45;;;;;;;0.20;0.20;;;;;;;2.88;64.95;101006.56;5012454;28;20033;-81
2021/12/25 08:24:11;;;;;;;0.15;0.15;;;;;;;2.90;64.83;101010.09;5006480;28;20161;-86
2021/12/25 08:26:38;;;;;;;0.20;0.20;;;;;;;2.83;65.27;101012.56;5013227;28;20068;-86
2021/12/25 08:29:04;;;;;;;0.20;0.20;;;;;;;2.82;65.22;101016.94;5012678;28;20550;-84
2021/12/25 08:31:30;;;;;;;0.10;0.10;;;;;;;2.75;65.24;101015.97;4995003;28;20030;-84
2021/12/25 08:33:56;;;;;;;0.20;0.20;;;;;;;2.80;64.98;101021.25;5011594;28;20044;-78
2021/12/25 08:36:23;;;;;;;0.10;0.10;;;;;;;2.81;64.93;101025.63;5013693;28;20083;-84
2021/12/25 08:38:49;;;;;;;0.10;0.10;;;;;;;2.79;65.50;101022.16;5015608;28;20440;-85
2021/12/25 08:41:15;;;;;;;0.10;0.10;;;;;;;2.83;65.63;101031.78;5013756;28;20163;-83
2021/12/25 08:43:47;;;;;;;0.20;0.20;;;;;;;2.83;65.28;101038.75;5017705;28;20512;-82
2021/12/25 08:46:24;;;;;;;0.20;0.20;;;;;;;2.87;65.51;101046.66;5018541;28;20048;-84
2021/12/25 08:48:52;;;;;;;0.10;0.10;;;;;;;2.81;64.75;101038.72;5015157;28;20029;-84
2021/12/25 08:51:18;;;;;;;0.15;0.15;;;;;;;2.81;65.42;101045.72;5011226;28;20552;-84
2021/12/25 08:53:45;;;;;;;0.10;0.10;;;;;;;2.84;64.98;101046.63;5011658;28;20038;-83
2021/12/25 08:56:12;;;;;;;0.20;0.20;;;;;;;2.80;65.00;101054.41;5011819;28;20464;-82
2021/12/25 08:58:38;;;;;;;0.15;0.15;;;;;;;2.85;65.02;101056.22;5009341;28;20038;-84
2021/12/25 09:01:07;;;;;;;0.10;0.10;;;;;;;2.84;64.95;101062.34;5009927;28;20345;-83
2021/12/25 09:03:33;;;;;;;0.20;0.20;;;;;;;2.78;64.41;101067.47;5014637;28;20094;-84
2021/12/25 09:06:01;;;;;;;0.10;0.10;;;;;;;2.73;64.55;101062.16;5009569;28;20037;-78
2021/12/25 09:08:28;;;;;;;0.17;0.17;;;;;;;2.74;64.53;101065.66;5009238;28;20390;-82
2021/12/25 09:10:54;;;;;;;0.10;0.10;;;;;;;2.75;64.29;101073.56;5010248;28;20092;-81
2021/12/25 09:13:22;;;;;;;0.10;0.10;;;;;;;2.73;64.77;101079.63;5010242;28;20469;-84
2021/12/25 09:15:48;;;;;;;0.10;0.10;;;;;;;2.74;64.57;101071.78;5009718;28;20064;-79
2021/12/25 09:18:14;;;;;;;0.13;0.13;;;;;;;2.80;64.57;101072.72;5005027;28;20056;-78
2021/12/25 09:20:40;;;;;;;0.10;0.10;;;;;;;2.81;64.53;101071.88;5006890;28;20030;-78
2021/12/25 09:23:06;;;;;;;0.20;0.20;;;;;;;2.80;64.39;101080.59;5010540;28;20071;-81
2021/12/25 09:25:33;;;;;;;0.10;0.10;;;;;;;2.86;64.37;101086.78;5011057;28;20036;-78
2021/12/25 09:27:59;;;;;;;0.30;0.30;;;;;;;2.87;64.23;101077.22;5010306;28;20046;-81
2021/12/25 09:30:26;;;;;;;0.13;0.13;;;;;;;2.84;64.18;101079.75;5012891;28;20033;-81
2021/12/25 09:32:53;;;;;;;0.20;0.20;;;;;;;2.83;63.65;101076.28;5016969;28;20465;-78
2021/12/25 09:35:19;;;;;;;0.20;0.20;;;;;;;2.79;63.75;101084.94;5021243;28;20046;-78
2021/12/25 09:37:46;;;;;;;0.10;0.10;;;;;;;2.85;63.62;101082.41;5016019;28;20045;-77
2021/12/25 09:40:13;;;;;;;0.20;0.20;;;;;;;2.83;63.68;101086.75;5023472;28;20038;-75
2021/12/25 09:42:40;;;;;;;0.10;0.10;;;;;;;2.85;63.73;101084.16;5019222;28;20033;-81
2021/12/25 09:45:08;;;;;;;0.10;0.10;;;;;;;2.87;63.22;101090.28;5018364;28;20037;-80
2021/12/25 09:47:35;;;;;;;0.10;0.10;;;;;;;2.92;63.72;101091.25;5022263;28;20065;-82
2021/12/25 09:50:02;;;;;;;0.20;0.20;;;;;;;2.89;63.18;101092.06;5025808;28;20038;-80
2021/12/25 09:52:29;;;;;;;0.10;0.10;;;;;;;2.95;63.10;101090.41;5018941;28;20038;-77
2021/12/25 09:54:56;;;;;;;0.10;0.10;;;;;;;2.96;63.82;101092.16;5016064;28;20537;-77
2021/12/25 09:57:23;;;;;;;0.20;0.20;;;;;;;2.97;62.96;101099.16;5015955;28;20057;-81
2021/12/25 09:59:51;;;;;;;0.10;0.10;;;;;;;3.07;63.06;101091.47;5016731;28;20030;-78
2021/12/25 10:02:18;;;;;;;0.15;0.15;;;;;;;3.12;62.67;101094.16;5012444;28;20045;-80
2021/12/25 10:07:30;;;;;;;0.10;0.10;;;;;;;3.28;62.91;101094.34;5076972;28;20918;-81
2021/12/25 10:12:51;;;;;;;0.20;0.20;;;;;;;3.17;61.80;101081.13;5111648;27;20412;-82
2021/12/25 10:15:22;;;;;;;0.10;0.10;;;;;;;3.29;62.06;101086.56;5108440;28;20071;-81
2021/12/25 10:17:54;;;;;;;0.10;0.10;;;;;;;3.31;62.14;101089.19;5109733;28;20059;-82
2021/12/25 10:20:25;;;;;;;0.13;0.13;;;;;;;3.35;62.22;101096.22;5097493;27;20036;-81
2021/12/25 10:25:55;;;;;;;0.15;0.15;;;;;;;3.51;61.66;101097.31;5076221;28;20575;-81
2021/12/25 10:31:13;;;;;;;0.20;0.20;;;;;;;3.41;60.51;101088.44;5054445;28;20931;-78
2021/12/25 10:36:29;;;;;;;0.17;0.17;;;;;;;3.29;60.94;101085.66;5061152;27;20788;-83
2021/12/25 10:39:04;;;;;;;0.10;0.10;;;;;;;3.20;59.96;101082.06;5060965;28;20430;-80
2021/12/25 10:41:35;;;;;;;0.20;0.20;;;;;;;3.09;60.32;101083.66;5059597;28;20459;-83
2021/12/25 10:44:20;;;;;;;0.20;0.20;;;;;;;3.16;60.49;101085.47;5059502;28;20086;-83
2021/12/25 10:49:39;;;;;;;0.20;0.20;;;;;;;3.03;59.66;101100.13;5154990;27;20630;-79
2021/12/25 10:52:28;;;;;;;0.10;0.10;;;;;;;3.12;59.97;101101.13;5128641;27;20498;-79
2021/12/25 10:55:03;;;;;;;0.10;0.10;;;;;;;3.06;60.00;101102.78;5118069;28;20038;-78
2021/12/25 10:57:50;;;;;;;0.20;0.20;;;;;;;3.17;59.75;101097.72;5120153;28;20051;-84
2021/12/25 11:03:04;;;;;;;0.15;0.15;;;;;;;3.15;59.69;101104.66;5091759;27;1249799;-79
2021/12/25 11:05:35;;;;;;;0.10;0.10;;;;;;;3.12;59.25;101094.16;5098125;28;20032;-80
2021/12/25 11:08:19;;;;;;;1.00;0.95;;;;;;;3.17;60.37;101102.09;5101306;28;20037;-81
2021/12/25 11:10:58;;;;;;;0.20;0.20;;;;;;;3.10;58.85;101089.75;5105443;28;20035;-84
2021/12/25 11:19:15;;;;;;;0.20;0.20;;;;;;;3.47;60.20;101096.38;5046160;28;20427;-80
2021/12/25 11:24:32;;;;;;;0.20;0.20;;;;;;;3.68;59.68;101094.91;5082950;27;20417;-78
2021/12/25 11:27:06;;;;;;;0.20;0.20;;;;;;;3.76;58.57;101093.25;5064384;28;20033;-82
2021/12/25 11:29:35;;;;;;;0.20;0.20;;;;;;;3.91;58.30;101096.91;5067301;28;20376;-82
2021/12/25 11:32:05;;;;;;;0.20;0.20;;;;;;;3.92;56.72;101090.81;5056550;28;20039;-78
2021/12/25 11:34:32;;;;;;;0.20;0.20;;;;;;;4.03;58.56;101081.31;5045601;28;20041;-81
2021/12/25 11:37:00;;;;;;;0.10;0.10;;;;;;;4.13;57.78;101083.16;5042148;28;20033;-81
2021/12/25 11:39:30;;;;;;;0.10;0.10;;;;;;;4.23;57.08;101088.53;5042699;28;20469;-78
2021/12/25 11:42:04;;;;;;;0.20;0.20;;;;;;;4.33;58.43;101085.13;5047673;28;20112;-80
2021/12/25 11:44:44;;;;;;;0.10;0.10;;;;;;;4.39;56.86;101079.94;5047111;28;20032;-78
2021/12/25 11:47:37;;;;;;;0.20;0.20;;;;;;;4.39;56.81;101077.31;5039562;28;20040;-78
2021/12/25 11:50:17;;;;;;;0.20;0.20;;;;;;;4.33;55.96;101069.38;5036201;28;20075;-81
2021/12/25 11:53:00;;;;;;;0.10;0.10;;;;;;;4.29;56.40;101072.84;5043529;28;20033;-83
2021/12/25 11:58:41;;;;;;;0.20;0.20;;;;;;;4.20;55.79;101069.25;5058215;28;20912;-81
2021/12/25 12:01:18;;;;;;;0.10;0.10;;;;;;;4.24;56.10;101074.53;5062944;28;20391;-79
2021/12/25 12:03:48;;;;;;;0.13;0.13;;;;;;;4.16;56.47;101066.59;5042226;28;20472;-81
2021/12/25 12:06:15;;;;;;;0.10;0.10;;;;;;;4.19;57.15;101067.50;5046809;28;20527;-82
2021/12/25 12:11:40;;;;;;;0.17;0.17;;;;;;;4.23;57.34;101068.41;5075688;27;20483;-78
2021/12/25 12:19:47;;;;;;;0.20;0.20;;;;;;;4.33;56.71;101058.88;5033846;28;20399;-81
2021/12/25 12:30:41;;;;;;;0.20;0.20;;;;;;;4.84;55.90;101057.53;5055345;27;20492;-81
2021/12/25 12:36:03;;;;;;;0.10;0.10;;;;;;;4.79;53.85;101051.38;5062452;27;20423;-83
2021/12/25 12:38:43;;;;;;;0.10;0.10;;;;;;;4.88;53.85;101050.56;5041119;28;20043;-81
2021/12/25 12:41:34;;;;;;;0.17;0.17;;;;;;;4.88;54.62;101047.94;5039296;28;20034;-88
2021/12/25 12:46:58;;;;;;;0.10;0.10;;;;;;;4.86;53.86;101031.31;4972961;27;2990037;-84
2021/12/25 12:58:18;;;;;;;0.10;0.10;;;;;;;4.75;53.29;101020.75;5028499;27;1625969;-86
2021/12/25 13:00:49;;;;;;;0.10;0.10;;;;;;;4.84;55.17;101014.66;5052659;28;20040;-84
2021/12/25 13:03:17;;;;;;;0.10;0.10;;;;;;;4.80;54.30;101021.66;5053619;28;20504;-82
2021/12/25 13:05:49;;;;;;;0.75;0.75;;;;;;;4.85;54.38;101013.81;5052980;28;20025;-86
2021/12/25 13:11:20;;;;;;;0.10;0.10;;;;;;;4.91;53.68;101023.44;5060026;27;20418;-90
2021/12/25 13:13:58;;;;;;;0.10;0.10;;;;;;;4.85;53.31;101019.94;5035323;28;20041;-87
2021/12/25 13:16:36;;;;;;;0.13;0.13;;;;;;;4.95;54.37;101020.00;5039246;28;20207;-88
2021/12/25 13:19:05;;;;;;;0.20;0.20;;;;;;;4.93;52.75;101014.72;5050944;28;20087;-78
2021/12/25 13:21:37;;;;;;;0.10;0.10;;;;;;;4.92;52.37;101006.84;5043128;28;20061;-78
2021/12/25 13:24:07;;;;;;;0.10;0.10;;;;;;;4.97;54.13;101026.13;5039094;28;20044;-79
2021/12/25 13:26:38;;;;;;;0.10;0.10;;;;;;;5.00;54.04;101027.00;5048785;28;20037;-83
2021/12/25 13:29:10;;;;;;;0.10;0.10;;;;;;;5.05;53.66;101028.78;5048993;28;20037;-77
2021/12/25 13:31:38;;;;;;;0.10;0.10;;;;;;;5.02;52.65;101024.41;5033164;28;20065;-80
2021/12/25 13:34:12;;;;;;;0.10;0.10;;;;;;;5.07;53.52;101027.94;5037227;28;20846;-81
2021/12/25 13:36:39;;;;;;;0.10;0.10;;;;;;;5.08;53.90;101032.31;5050034;28;20044;-81
2021/12/25 13:39:09;;;;;;;0.10;0.10;;;;;;;5.02;52.62;101045.41;5038283;28;20032;-82
2021/12/25 13:41:41;;;;;;;0.20;0.20;;;;;;;5.11;53.15;101027.09;5030713;28;20030;-82
2021/12/25 13:46:51;;;;;;;0.10;0.10;;;;;;;4.99;51.28;101033.13;5111358;27;20384;-78
2021/12/25 13:49:41;;;;;;;0.10;0.10;;;;;;;5.16;52.67;101033.25;5102243;28;20093;-83
2021/12/25 13:55:16;;;;;;;0.20;0.20;;;;;;;5.17;53.58;101036.72;5172161;27;20152;-82
2021/12/25 13:57:45;;;;;;;0.20;0.20;;;;;;;5.06;53.01;101038.41;5115307;27;1212288;-83
2021/12/25 14:00:24;;;;;;;0.20;0.20;;;;;;;5.03;52.60;101028.78;5124165;28;20478;-86
2021/12/25 14:02:55;;;;;;;0.10;0.10;;;;;;;4.98;52.55;101033.13;5119125;28;20359;-83
2021/12/25 14:05:25;;;;;;;0.10;0.10;;;;;;;4.96;52.17;101030.50;5130218;28;20035;-83